createdAt,value
2018-08-13T00:01:24.865Z,19.20
2018-08-13T00:03:54.854Z,19.20
2018-08-13T00:06:24.922Z,19.10
2018-08-13T00:08:54.602Z,19.10
2018-08-13T00:11:24.360Z,19.10
2018-08-13T00:13:54.525Z,19.00
2018-08-13T00:16:24.459Z,19.00
2018-08-13T00:18:54.269Z,19.00
2018-08-13T00:21:24.010Z,19.00
2018-08-13T00:23:54.493Z,19.00
2018-08-13T00:26:23.980Z,19.00
2018-08-13T00:28:53.630Z,19.00
2018-08-13T00:31:23.481Z,19.00
2018-08-13T00:33:53.341Z,19.00
2018-08-13T00:36:23.034Z,19.00
2018-08-13T00:38:52.893Z,18.90
2018-08-13T00:41:22.454Z,18.90
2018-08-13T00:43:52.272Z,18.90
2018-08-13T00:46:22.581Z,18.90
2018-08-13T00:48:52.113Z,18.80
2018-08-13T00:51:22.969Z,18.80
2018-08-13T00:53:52.945Z,18.80
2018-08-13T00:56:22.505Z,18.70
2018-08-13T00:58:52.348Z,18.80
2018-08-13T01:01:22.213Z,18.70
2018-08-13T01:03:52.560Z,18.70
2018-08-13T01:06:22.789Z,18.70
2018-08-13T01:08:53.139Z,18.70
2018-08-13T01:11:23.077Z,18.70
2018-08-13T01:13:52.620Z,18.70
2018-08-13T01:16:22.513Z,18.60
2018-08-13T01:18:52.030Z,18.60
2018-08-13T01:21:21.583Z,18.60
2018-08-13T01:23:51.965Z,18.60
2018-08-13T01:26:21.657Z,18.60
2018-08-13T01:28:51.664Z,18.60
2018-08-13T01:31:21.894Z,18.50
2018-08-13T01:33:51.421Z,18.60
2018-08-13T01:36:21.200Z,18.50
2018-08-13T01:38:51.281Z,18.60
2018-08-13T01:41:21.421Z,18.50
2018-08-13T01:43:50.946Z,18.50
2018-08-13T01:46:20.834Z,18.50
2018-08-13T01:48:50.370Z,18.50
2018-08-13T01:51:19.933Z,18.50
2018-08-13T01:53:50.074Z,18.50
2018-08-13T01:56:19.786Z,18.40
2018-08-13T01:58:49.299Z,18.40
2018-08-13T02:01:19.368Z,18.40
2018-08-13T02:03:48.949Z,18.40
2018-08-13T02:06:18.729Z,18.40
2018-08-13T02:08:48.885Z,18.30
2018-08-13T02:11:18.949Z,18.30
2018-08-13T02:13:48.750Z,18.30
2018-08-13T02:16:18.721Z,18.30
2018-08-13T02:18:48.489Z,18.30
2018-08-13T02:21:18.170Z,18.30
2018-08-13T02:23:48.429Z,18.30
2018-08-13T02:26:18.122Z,18.30
2018-08-13T02:28:48.145Z,18.20
2018-08-13T02:31:18.291Z,18.30
2018-08-13T02:33:48.450Z,18.30
2018-08-13T02:36:18.053Z,18.30
2018-08-13T02:38:47.945Z,18.20
2018-08-13T02:41:17.973Z,18.20
2018-08-13T02:43:47.725Z,18.20
2018-08-13T02:46:21.313Z,18.20
2018-08-13T02:48:51.261Z,18.30
2018-08-13T02:51:21.154Z,18.30
2018-08-13T02:53:51.425Z,18.30
2018-08-13T02:56:21.225Z,18.30
2018-08-13T02:58:51.001Z,18.30
2018-08-13T03:01:28.813Z,18.20
2018-08-13T03:03:58.889Z,18.10
2018-08-13T03:06:28.897Z,18.00
2018-08-13T03:08:58.514Z,17.90
2018-08-13T03:11:28.173Z,17.90
2018-08-13T03:13:58.307Z,17.90
2018-08-13T03:16:28.297Z,17.90
2018-08-13T03:18:57.990Z,17.90
2018-08-13T03:21:28.467Z,17.90
2018-08-13T03:23:58.360Z,17.90
2018-08-13T03:26:28.055Z,17.90
2018-08-13T03:28:57.596Z,17.90
2018-08-13T03:31:27.306Z,17.80
2018-08-13T03:33:57.530Z,17.80
2018-08-13T03:36:27.125Z,17.70
2018-08-13T03:38:56.785Z,17.60
2018-08-13T03:41:26.888Z,17.60
2018-08-13T03:43:56.792Z,17.60
2018-08-13T03:46:26.365Z,17.60
2018-08-13T03:48:57.045Z,17.60
2018-08-13T03:51:27.828Z,17.60
2018-08-13T03:53:57.356Z,17.60
2018-08-13T03:56:27.432Z,17.60
2018-08-13T03:58:57.010Z,17.60
2018-08-13T04:01:26.842Z,17.60
2018-08-13T04:03:57.334Z,17.60
2018-08-13T04:06:26.939Z,17.60
2018-08-13T04:08:56.625Z,17.60
2018-08-13T04:11:26.217Z,17.60
2018-08-13T04:13:55.989Z,17.60
2018-08-13T04:16:26.161Z,17.60
2018-08-13T04:18:56.038Z,17.60
2018-08-13T04:21:25.623Z,17.60
2018-08-13T04:23:55.409Z,17.70
2018-08-13T04:26:25.132Z,17.70
2018-08-13T04:28:54.705Z,17.70
2018-08-13T04:31:26.245Z,17.70
2018-08-13T04:33:55.931Z,17.80
2018-08-13T04:36:25.502Z,17.80
2018-08-13T04:38:56.674Z,17.80
2018-08-13T04:41:26.901Z,17.90
2018-08-13T04:43:56.534Z,17.90
2018-08-13T04:46:28.425Z,17.90
2018-08-13T04:49:10.353Z,17.90
2018-08-13T04:51:39.929Z,18.00
2018-08-13T04:54:09.577Z,18.10
2018-08-13T04:56:39.830Z,18.10
2018-08-13T04:59:09.837Z,18.20
2018-08-13T05:01:39.577Z,18.20
2018-08-13T05:04:09.051Z,18.30
2018-08-13T05:06:38.565Z,18.40
2018-08-13T05:09:09.861Z,18.50
2018-08-13T05:11:40.393Z,18.60
2018-08-13T05:14:10.010Z,18.70
2018-08-13T05:16:40.365Z,18.90
2018-08-13T05:19:12.193Z,19.00
2018-08-13T05:21:42.047Z,19.10
2018-08-13T05:24:12.437Z,19.20
2018-08-13T05:26:42.434Z,19.30
2018-08-13T05:29:12.122Z,19.40
2018-08-13T05:31:42.113Z,19.50
2018-08-13T05:34:12.028Z,19.60
2018-08-13T05:36:43.371Z,19.60
2018-08-13T05:39:16.561Z,19.70
2018-08-13T05:41:46.557Z,19.80
2018-08-13T05:44:16.567Z,19.90
2018-08-13T05:46:46.566Z,19.90
2018-08-13T05:49:16.282Z,20.00
2018-08-13T05:51:46.101Z,20.10
2018-08-13T05:54:16.462Z,20.10
2018-08-13T05:56:46.229Z,20.10
2018-08-13T05:59:16.021Z,20.30
2018-08-13T06:01:46.830Z,20.30
2018-08-13T06:04:16.678Z,20.30
2018-08-13T06:06:46.693Z,20.40
2018-08-13T06:09:20.702Z,20.50
2018-08-13T06:11:50.449Z,20.50
2018-08-13T06:14:20.156Z,20.60
2018-08-13T06:16:49.925Z,20.70
2018-08-13T06:19:37.299Z,20.80
2018-08-13T06:22:07.418Z,20.80
2018-08-13T06:24:37.406Z,20.90
2018-08-13T06:27:07.399Z,21.00
2018-08-13T06:29:37.094Z,21.20
2018-08-13T06:32:07.350Z,21.40
2018-08-13T06:34:37.153Z,21.50
2018-08-13T06:37:07.516Z,21.70
2018-08-13T06:39:37.630Z,21.90
2018-08-13T06:42:07.381Z,22.20
2018-08-13T06:44:36.933Z,22.30
2018-08-13T06:47:07.658Z,22.50
2018-08-13T06:50:02.167Z,22.60
2018-08-13T06:52:32.149Z,22.60
2018-08-13T06:55:02.393Z,22.60
2018-08-13T06:57:31.994Z,22.70
2018-08-13T07:00:02.293Z,22.70
2018-08-13T07:02:33.193Z,22.80
2018-08-13T07:05:03.488Z,22.80
2018-08-13T07:07:33.231Z,23.00
2018-08-13T07:10:16.625Z,23.10
2018-08-13T07:12:57.951Z,23.30
2018-08-13T07:15:27.866Z,23.50
2018-08-13T07:17:57.814Z,23.40
2018-08-13T07:20:27.538Z,23.50
2018-08-13T07:22:57.145Z,23.60
2018-08-13T07:25:27.294Z,23.70
2018-08-13T07:27:56.939Z,23.50
2018-08-13T07:30:26.522Z,23.60
2018-08-13T07:32:56.182Z,23.70
2018-08-13T07:35:26.366Z,23.70
2018-08-13T07:37:55.998Z,23.70
2018-08-13T07:40:26.499Z,23.70
2018-08-13T07:42:56.925Z,23.80
2018-08-13T07:45:26.569Z,24.10
2018-08-13T07:47:56.448Z,24.30
2018-08-13T07:50:26.448Z,24.60
2018-08-13T07:52:56.062Z,24.70
2018-08-13T07:55:25.694Z,25.00
2018-08-13T07:57:55.617Z,25.30
2018-08-13T08:00:25.166Z,25.60
2018-08-13T08:02:54.683Z,25.90
2018-08-13T08:05:24.646Z,26.10
2018-08-13T08:07:54.269Z,25.90
2018-08-13T08:10:23.916Z,25.80
2018-08-13T08:12:53.946Z,26.00
2018-08-13T08:15:23.666Z,25.90
2018-08-13T08:17:53.188Z,26.20
2018-08-13T08:20:23.165Z,26.20
2018-08-13T08:23:00.350Z,26.20
2018-08-13T08:25:30.081Z,25.80
2018-08-13T08:28:00.092Z,25.90
2018-08-13T08:30:29.646Z,25.90
2018-08-13T08:32:59.169Z,25.90
2018-08-13T08:35:28.699Z,26.10
2018-08-13T08:37:58.344Z,26.10
2018-08-13T08:40:27.819Z,26.00
2018-08-13T08:42:57.660Z,25.90
2018-08-13T08:45:28.596Z,25.90
2018-08-13T08:47:58.695Z,26.10
2018-08-13T08:50:28.121Z,26.20
2018-08-13T08:52:57.658Z,26.30
2018-08-13T08:55:27.531Z,26.20
2018-08-13T08:57:57.005Z,26.10
2018-08-13T09:00:30.266Z,26.40
2018-08-13T09:03:00.203Z,26.60
2018-08-13T09:05:29.842Z,26.90
2018-08-13T09:07:59.482Z,26.90
2018-08-13T09:10:29.378Z,27.10
2018-08-13T09:12:58.882Z,27.40
2018-08-13T09:15:28.270Z,27.90
2018-08-13T09:20:10.554Z,28.10
2018-08-13T09:22:50.914Z,28.30
2018-08-13T09:25:31.059Z,29.00
2018-08-13T09:28:11.492Z,29.20
2018-08-13T09:30:51.775Z,29.40
2018-08-13T09:33:32.055Z,29.40
2018-08-13T09:36:01.672Z,29.90
2018-08-13T09:38:31.312Z,30.10
2018-08-13T09:41:01.219Z,30.00
2018-08-13T09:43:30.695Z,30.00
2018-08-13T09:46:00.231Z,30.20
2018-08-13T09:48:30.587Z,30.10
2018-08-13T09:51:00.191Z,30.40
2018-08-13T09:53:29.759Z,30.40
2018-08-13T09:56:03.510Z,30.30
2018-08-13T09:58:32.987Z,30.40
2018-08-13T10:01:09.675Z,30.70
2018-08-13T10:03:39.632Z,30.80
2018-08-13T10:06:09.233Z,30.70
2018-08-13T10:08:39.248Z,31.20
2018-08-13T10:11:08.702Z,31.60
2018-08-13T10:13:38.090Z,32.00
2018-08-13T10:16:07.620Z,32.20
2018-08-13T10:18:37.044Z,32.20
2018-08-13T10:21:06.552Z,32.00
2018-08-13T10:23:36.295Z,32.10
2018-08-13T10:26:05.751Z,32.90
2018-08-13T10:28:35.195Z,33.30
2018-08-13T10:31:05.015Z,33.50
2018-08-13T10:33:35.548Z,33.70
2018-08-13T10:36:06.132Z,33.20
2018-08-13T10:38:35.631Z,33.50
2018-08-13T10:41:05.262Z,33.20
2018-08-13T10:43:34.805Z,33.50
2018-08-13T10:46:04.254Z,33.40
2018-08-13T10:48:33.694Z,33.40
2018-08-13T10:51:03.122Z,33.40
2018-08-13T10:53:32.870Z,33.30
2018-08-13T10:56:02.920Z,33.30
2018-08-13T10:58:32.538Z,33.10
2018-08-13T11:01:02.063Z,32.90
2018-08-13T11:03:32.052Z,32.50
2018-08-13T11:06:01.539Z,32.00
2018-08-13T11:08:32.071Z,31.60
2018-08-13T11:11:01.477Z,31.40
2018-08-13T11:13:31.139Z,31.10
2018-08-13T11:16:01.442Z,30.70
2018-08-13T11:18:33.634Z,30.80
2018-08-13T11:21:03.146Z,31.00
2018-08-13T11:23:33.004Z,31.00
2018-08-13T11:26:02.474Z,31.20
2018-08-13T11:28:32.366Z,31.20
2018-08-13T11:31:02.240Z,31.40
2018-08-13T11:33:31.675Z,31.50
2018-08-13T11:36:01.199Z,31.80
2018-08-13T11:38:31.110Z,31.40
2018-08-13T11:41:00.522Z,30.90
2018-08-13T11:43:30.086Z,30.80
2018-08-13T11:45:59.881Z,30.70
2018-08-13T11:48:29.315Z,30.30
2018-08-13T11:50:58.974Z,30.40
2018-08-13T11:53:28.408Z,30.10
2018-08-13T11:55:57.887Z,29.70
2018-08-13T11:58:27.398Z,29.70
2018-08-13T12:00:56.917Z,29.80
2018-08-13T12:03:26.366Z,29.70
2018-08-13T12:05:56.257Z,28.70
2018-08-13T12:08:25.799Z,28.60
2018-08-13T12:10:55.237Z,28.60
2018-08-13T12:13:25.087Z,28.40
2018-08-13T12:15:54.653Z,28.20
2018-08-13T12:18:24.111Z,28.10
2018-08-13T12:20:54.671Z,28.30
2018-08-13T12:23:24.183Z,28.40
2018-08-13T12:25:53.669Z,28.20
2018-08-13T12:28:23.533Z,28.30
2018-08-13T12:30:52.986Z,28.40
2018-08-13T12:33:22.595Z,28.10
2018-08-13T12:35:52.483Z,27.60
2018-08-13T12:38:22.080Z,27.30
2018-08-13T12:40:51.635Z,26.80
2018-08-13T12:43:21.449Z,26.80
2018-08-13T12:45:51.275Z,26.60
2018-08-13T12:48:20.815Z,26.60
2018-08-13T12:50:50.741Z,26.60
2018-08-13T12:53:20.188Z,26.60
2018-08-13T12:55:49.783Z,26.70
2018-08-13T12:58:19.520Z,26.30
2018-08-13T13:00:53.415Z,26.20
2018-08-13T13:03:22.846Z,26.20
2018-08-13T13:05:52.814Z,25.90
2018-08-13T13:08:22.916Z,25.80
2018-08-13T13:10:52.449Z,25.60
2018-08-13T13:13:23.246Z,25.40
2018-08-13T13:15:52.907Z,25.30
2018-08-13T13:18:22.579Z,25.30
2018-08-13T13:20:52.199Z,25.20
2018-08-13T13:23:24.581Z,25.10
2018-08-13T13:25:54.638Z,25.00
2018-08-13T13:28:25.650Z,25.00
2018-08-13T13:33:35.902Z,24.90
2018-08-13T13:36:06.183Z,24.90
2018-08-13T13:38:43.177Z,24.90
2018-08-13T13:41:13.043Z,25.10
2018-08-13T13:43:42.964Z,25.20
2018-08-13T13:46:13.421Z,25.40
2018-08-13T13:48:42.956Z,25.50
2018-08-13T13:51:16.306Z,25.60
2018-08-13T13:53:46.683Z,25.60
2018-08-13T13:56:16.318Z,25.70
2018-08-13T13:58:45.781Z,25.80
2018-08-13T14:01:16.667Z,26.00
2018-08-13T14:03:46.256Z,26.00
2018-08-13T14:06:15.763Z,25.90
2018-08-13T14:08:47.916Z,25.90
2018-08-13T14:11:18.038Z,25.70
2018-08-13T14:13:48.090Z,25.70
2018-08-13T14:16:17.672Z,25.60
2018-08-13T14:18:47.575Z,25.60
2018-08-13T14:21:17.066Z,25.60
2018-08-13T14:23:46.681Z,25.50
2018-08-13T14:26:16.764Z,25.50
2018-08-13T14:28:46.415Z,25.20
2018-08-13T14:31:15.898Z,24.90
2018-08-13T14:33:45.966Z,24.60
2018-08-13T14:36:16.206Z,24.20
2018-08-13T14:38:46.862Z,23.70
2018-08-13T14:41:16.633Z,23.30
2018-08-13T14:43:46.178Z,23.00
2018-08-13T14:46:15.684Z,22.70
2018-08-13T14:48:45.599Z,22.40
2018-08-13T14:51:15.179Z,22.30
2018-08-13T14:53:44.685Z,21.90
2018-08-13T14:56:14.796Z,21.80
2018-08-13T14:58:46.262Z,21.80
2018-08-13T15:01:16.820Z,21.70
2018-08-13T15:03:46.699Z,21.70
2018-08-13T15:06:16.530Z,21.80
2018-08-13T15:08:46.520Z,21.90
2018-08-13T15:11:16.775Z,22.10
2018-08-13T15:13:48.845Z,22.20
2018-08-13T15:16:18.667Z,22.30
2018-08-13T15:18:48.971Z,22.20
2018-08-13T15:21:27.424Z,22.20
2018-08-13T15:23:56.852Z,22.30
2018-08-13T15:26:26.610Z,22.40
2018-08-13T15:28:56.052Z,22.50
2018-08-13T15:31:25.791Z,22.50
2018-08-13T15:33:56.062Z,22.60
2018-08-13T15:36:26.438Z,22.70
2018-08-13T15:38:57.605Z,22.80
2018-08-13T15:41:28.782Z,23.20
2018-08-13T15:43:58.762Z,23.50
2018-08-13T15:46:28.335Z,23.90
2018-08-13T15:48:59.281Z,24.10
2018-08-13T15:51:28.924Z,24.30
2018-08-13T15:53:58.383Z,24.30
2018-08-13T15:56:27.860Z,24.40
2018-08-13T15:58:57.322Z,24.40
2018-08-13T16:01:27.292Z,24.40
2018-08-13T16:03:56.866Z,24.30
2018-08-13T16:06:26.301Z,24.30
2018-08-13T16:08:56.206Z,24.30
2018-08-13T16:11:25.710Z,24.30
2018-08-13T16:13:55.122Z,24.00
2018-08-13T16:16:25.124Z,23.90
2018-08-13T16:18:54.705Z,23.90
2018-08-13T16:21:31.360Z,23.80
2018-08-13T16:24:06.086Z,23.70
2018-08-13T16:26:36.389Z,23.60
2018-08-13T16:29:07.058Z,23.40
2018-08-13T16:31:38.502Z,23.20
2018-08-13T16:34:08.242Z,23.10
2018-08-13T16:36:38.118Z,23.00
2018-08-13T16:39:10.582Z,23.00
2018-08-13T16:41:40.968Z,22.90
2018-08-13T16:44:12.096Z,22.80
2018-08-13T16:46:41.677Z,22.90
2018-08-13T16:49:11.106Z,23.00
2018-08-13T16:51:41.182Z,23.00
2018-08-13T16:54:10.767Z,23.00
2018-08-13T16:56:40.736Z,23.00
2018-08-13T16:59:11.027Z,23.10
2018-08-13T17:01:44.805Z,23.10
2018-08-13T17:04:15.558Z,23.10
2018-08-13T17:06:45.427Z,23.10
2018-08-13T17:09:14.846Z,23.10
2018-08-13T17:11:44.318Z,23.20
2018-08-13T17:14:15.033Z,23.10
2018-08-13T17:16:46.250Z,23.10
2018-08-13T17:19:15.749Z,23.00
2018-08-13T17:21:45.735Z,23.00
2018-08-13T17:24:15.954Z,22.80
2018-08-13T17:26:45.837Z,22.50
2018-08-13T17:29:15.326Z,22.20
2018-08-13T17:31:44.895Z,21.90
2018-08-13T17:34:14.924Z,21.70
2018-08-13T17:36:44.396Z,21.30
2018-08-13T17:39:15.199Z,21.00
2018-08-13T17:41:45.594Z,19.90
2018-08-13T17:44:27.863Z,19.20
2018-08-13T17:46:57.869Z,18.80
2018-08-13T17:49:29.902Z,18.50
2018-08-13T17:52:00.275Z,18.30
2018-08-13T17:54:30.222Z,18.10
2018-08-13T17:57:00.024Z,18.00
2018-08-13T17:59:30.940Z,18.00
2018-08-13T18:02:00.835Z,18.00
2018-08-13T18:04:32.090Z,18.10
2018-08-13T18:07:02.029Z,18.10
2018-08-13T18:09:31.767Z,18.10
2018-08-13T18:12:01.545Z,18.10
2018-08-13T18:14:31.070Z,18.10
2018-08-13T18:17:00.500Z,18.10
2018-08-13T18:19:32.009Z,18.10
2018-08-13T18:22:01.660Z,18.10
2018-08-13T18:24:31.399Z,18.10
2018-08-13T18:27:02.568Z,18.10
2018-08-13T18:29:32.320Z,18.10
2018-08-13T18:32:01.806Z,18.10
2018-08-13T18:34:31.291Z,18.00
2018-08-13T18:37:02.778Z,18.00
2018-08-13T18:39:32.827Z,17.90
2018-08-13T18:42:02.399Z,17.90
2018-08-13T18:44:32.090Z,17.80
2018-08-13T18:47:03.940Z,17.80
2018-08-13T18:49:34.116Z,17.80
2018-08-13T18:52:04.478Z,17.80
2018-08-13T18:54:34.285Z,17.80
2018-08-13T18:57:05.217Z,17.80
2018-08-13T18:59:34.707Z,17.80
2018-08-13T19:02:04.523Z,17.90
2018-08-13T19:04:33.968Z,17.90
2018-08-13T19:07:04.227Z,17.90
2018-08-13T19:09:34.121Z,17.90
2018-08-13T19:12:03.647Z,17.80
2018-08-13T19:14:33.691Z,17.80
2018-08-13T19:17:03.090Z,17.80
2018-08-13T19:19:32.487Z,17.90
2018-08-13T19:22:02.295Z,17.70
2018-08-13T19:24:32.700Z,17.70
2018-08-13T19:27:02.512Z,17.50
2018-08-13T19:29:32.502Z,17.50
2018-08-13T19:32:01.903Z,17.50
2018-08-13T19:34:31.341Z,17.40
2018-08-13T19:37:01.190Z,17.40
2018-08-13T19:39:30.648Z,17.40
2018-08-13T19:42:00.190Z,17.30
2018-08-13T19:44:31.271Z,17.20
2018-08-13T19:47:00.877Z,17.20
2018-08-13T19:49:30.391Z,17.10
2018-08-13T19:52:00.245Z,17.10
2018-08-13T19:54:29.994Z,17.00
2018-08-13T19:56:59.745Z,17.00
2018-08-13T19:59:29.152Z,16.90
2018-08-13T20:01:58.803Z,16.90
2018-08-13T20:04:28.403Z,16.80
2018-08-13T20:06:58.464Z,16.80
2018-08-13T20:09:28.483Z,16.80
2018-08-13T20:11:58.156Z,16.70
2018-08-13T20:14:27.703Z,16.70
2018-08-13T20:16:57.812Z,16.70
2018-08-13T20:19:27.319Z,16.70
2018-08-13T20:21:56.876Z,16.60
2018-08-13T20:24:28.502Z,16.60
2018-08-13T20:26:58.555Z,16.60
2018-08-13T20:29:28.864Z,16.60
2018-08-13T20:31:59.290Z,16.50
2018-08-13T20:34:28.895Z,16.50
2018-08-13T20:36:59.461Z,16.60
2018-08-13T20:39:29.376Z,16.60
2018-08-13T20:41:59.281Z,16.50
2018-08-13T20:44:51.507Z,16.50
2018-08-13T20:47:23.795Z,16.60
2018-08-13T20:49:56.646Z,16.50
2018-08-13T20:52:28.110Z,16.50
2018-08-13T20:54:57.853Z,16.50
2018-08-13T20:57:27.450Z,16.50
2018-08-13T20:59:56.871Z,16.40
2018-08-13T21:02:26.619Z,16.40
2018-08-13T21:04:56.381Z,16.40
2018-08-13T21:07:25.951Z,16.40
2018-08-13T21:09:55.943Z,16.40
2018-08-13T21:12:25.598Z,16.40
2018-08-13T21:14:55.379Z,16.40
2018-08-13T21:17:25.367Z,16.40
2018-08-13T21:19:55.894Z,16.40
2018-08-13T21:22:25.512Z,16.40
2018-08-13T21:24:55.178Z,16.30
2018-08-13T21:27:24.638Z,16.30
2018-08-13T21:29:54.445Z,16.30
2018-08-13T21:32:23.863Z,16.30
2018-08-13T21:34:53.689Z,16.30
2018-08-13T21:37:23.683Z,16.30
2018-08-13T21:39:53.210Z,16.30
2018-08-13T21:42:22.769Z,16.30
2018-08-13T21:44:52.683Z,16.30
2018-08-13T21:47:22.548Z,16.30
2018-08-13T21:49:52.220Z,16.30
2018-08-13T21:52:21.970Z,16.30
2018-08-13T21:54:51.566Z,16.30
2018-08-13T21:57:24.375Z,16.30
2018-08-13T21:59:55.843Z,16.30
2018-08-13T22:02:25.423Z,16.40
2018-08-13T22:04:54.863Z,16.40
2018-08-13T22:07:24.606Z,16.40
2018-08-13T22:09:54.067Z,16.40
2018-08-13T22:12:23.676Z,16.40
2018-08-13T22:14:53.619Z,16.40
2018-08-13T22:17:23.257Z,16.40
2018-08-13T22:19:52.719Z,16.40
2018-08-13T22:22:22.596Z,16.40
2018-08-13T22:25:03.258Z,16.30
2018-08-13T22:27:32.778Z,16.30
2018-08-13T22:30:02.842Z,16.30
2018-08-13T22:32:32.437Z,16.30
2018-08-13T22:35:01.904Z,16.30
2018-08-13T22:37:31.705Z,16.30
2018-08-13T22:40:01.269Z,16.20
2018-08-13T22:42:30.709Z,16.30
2018-08-13T22:45:01.159Z,16.30
2018-08-13T22:47:30.838Z,16.30
2018-08-13T22:50:00.305Z,16.30
2018-08-13T22:52:30.439Z,16.40
2018-08-13T22:54:59.948Z,16.40
2018-08-13T22:57:29.409Z,16.40
2018-08-13T22:59:59.146Z,16.40
2018-08-13T23:02:28.798Z,16.40
2018-08-13T23:04:58.331Z,16.50
2018-08-13T23:07:28.043Z,16.50
2018-08-13T23:09:57.523Z,16.50
2018-08-13T23:12:27.039Z,16.50
2018-08-13T23:14:56.860Z,16.60
2018-08-13T23:17:26.324Z,16.60
2018-08-13T23:19:56.183Z,16.60
2018-08-13T23:23:07.688Z,16.70
2018-08-13T23:25:38.051Z,16.60
2018-08-13T23:28:11.582Z,16.70
2018-08-13T23:30:41.076Z,16.70
2018-08-13T23:33:10.596Z,16.80
2018-08-13T23:35:40.370Z,16.80
2018-08-13T23:38:09.807Z,16.70
2018-08-13T23:40:39.251Z,16.70
2018-08-13T23:43:09.015Z,16.70
2018-08-13T23:45:38.608Z,16.70
2018-08-13T23:48:08.346Z,16.70
2018-08-13T23:50:38.193Z,16.80
2018-08-13T23:53:07.661Z,16.80
2018-08-13T23:55:38.826Z,16.80
2018-08-13T23:58:12.820Z,16.70
